createdAt,value
2017-04-14T00:00:38.756Z,4.8
2017-04-14T00:01:40.005Z,4.89
2017-04-14T00:02:41.402Z,4.84
2017-04-14T00:03:42.657Z,4.88
2017-04-14T00:04:43.879Z,4.88
2017-04-14T00:05:45.143Z,4.84
2017-04-14T00:06:46.378Z,4.86
2017-04-14T00:07:47.673Z,4.86
2017-04-14T00:08:48.953Z,4.94
2017-04-14T00:09:50.163Z,4.88
2017-04-14T00:10:51.403Z,4.88
2017-04-14T00:11:52.670Z,4.84
2017-04-14T00:12:53.896Z,4.84
2017-04-14T00:13:55.134Z,4.88
2017-04-14T00:14:56.363Z,4.83
2017-04-14T00:15:57.772Z,4.75
2017-04-14T00:16:58.990Z,4.79
2017-04-14T00:18:00.274Z,4.77
2017-04-14T00:19:01.533Z,4.72
2017-04-14T00:20:02.774Z,4.75
2017-04-14T00:21:04.002Z,4.7
2017-04-14T00:22:05.252Z,4.64
2017-04-14T00:23:06.491Z,4.62
2017-04-14T00:24:07.733Z,4.69
2017-04-14T00:25:08.964Z,4.57
2017-04-14T00:26:10.217Z,4.58
2017-04-14T00:27:11.519Z,4.59
2017-04-14T00:28:12.761Z,4.61
2017-04-14T00:29:14.084Z,4.57
2017-04-14T00:30:15.318Z,4.57
2017-04-14T00:31:16.611Z,4.61
2017-04-14T00:32:17.822Z,4.59
2017-04-14T00:33:19.069Z,4.57
2017-04-14T00:34:20.302Z,4.59
2017-04-14T00:35:21.666Z,4.52
2017-04-14T00:36:22.900Z,4.62
2017-04-14T00:37:24.352Z,4.61
2017-04-14T00:38:25.472Z,4.61
2017-04-14T00:39:26.701Z,4.61
2017-04-14T00:40:27.928Z,4.58
2017-04-14T00:41:29.165Z,4.36
2017-04-14T00:42:30.408Z,4.44
2017-04-14T00:43:31.653Z,4.39
2017-04-14T00:44:32.886Z,4.42
2017-04-14T00:45:34.131Z,4.33
2017-04-14T00:46:35.368Z,4.39
2017-04-14T00:47:36.621Z,4.33
2017-04-14T00:48:37.830Z,4.33
2017-04-14T00:49:39.119Z,4.39
2017-04-14T00:50:40.368Z,4.29
2017-04-14T00:51:41.598Z,4.43
2017-04-14T00:52:42.838Z,4.32
2017-04-14T00:53:44.077Z,4.34
2017-04-14T00:54:45.358Z,4.25
2017-04-14T00:55:46.581Z,4.25
2017-04-14T00:56:47.851Z,4.32
2017-04-14T00:57:49.089Z,4.26
2017-04-14T00:58:50.443Z,4.25
2017-04-14T00:59:51.681Z,4.32
2017-04-14T01:00:52.920Z,4.25
2017-04-14T01:01:54.163Z,4.24
2017-04-14T01:02:55.409Z,4.25
2017-04-14T01:03:56.640Z,4.29
2017-04-14T01:04:57.874Z,4.32
2017-04-14T01:05:59.166Z,4.28
2017-04-14T01:07:00.423Z,4.24
2017-04-14T01:08:01.648Z,4.24
2017-04-14T01:09:02.993Z,4.28
2017-04-14T01:10:04.236Z,4.25
2017-04-14T01:11:05.465Z,4.24
2017-04-14T01:12:06.702Z,4.19
2017-04-14T01:13:07.941Z,4.21
2017-04-14T01:14:09.176Z,4.18
2017-04-14T01:15:10.419Z,4.18
2017-04-14T01:16:11.680Z,4.19
2017-04-14T01:17:12.908Z,4.22
2017-04-14T01:18:14.138Z,4.24
2017-04-14T01:19:15.377Z,4.22
2017-04-14T01:20:16.623Z,4.16
2017-04-14T01:21:17.866Z,4.18
2017-04-14T01:22:19.108Z,4.24
2017-04-14T01:23:20.341Z,4.18
2017-04-14T01:24:21.579Z,4.07
2017-04-14T01:25:22.800Z,4.14
2017-04-14T01:26:24.033Z,4.15
2017-04-14T01:27:25.267Z,4.19
2017-04-14T01:28:26.547Z,4.07
2017-04-14T01:29:27.857Z,4.14
2017-04-14T01:30:29.087Z,4.1
2017-04-14T01:31:30.338Z,4.18
2017-04-14T01:32:31.565Z,4.14
2017-04-14T01:33:32.881Z,4.24
2017-04-14T01:34:34.135Z,4.1
2017-04-14T01:35:35.380Z,4.14
2017-04-14T01:36:36.643Z,4.1
2017-04-14T01:37:37.879Z,4.04
2017-04-14T01:38:39.118Z,4.06
2017-04-14T01:39:40.358Z,4.15
2017-04-14T01:40:41.640Z,4.08
2017-04-14T01:41:42.946Z,4.07
2017-04-14T01:42:44.195Z,4.06
2017-04-14T01:43:45.415Z,4.04
2017-04-14T01:44:46.655Z,4
2017-04-14T01:45:47.892Z,4.12
2017-04-14T01:46:49.134Z,4.01
2017-04-14T01:47:50.502Z,4.12
2017-04-14T01:48:51.751Z,4.06
2017-04-14T01:49:53.092Z,4.01
2017-04-14T01:50:54.312Z,4.04
2017-04-14T01:51:55.547Z,3.98
2017-04-14T01:52:56.787Z,4.06
2017-04-14T01:53:58.068Z,3.96
2017-04-14T01:54:59.363Z,4.15
2017-04-14T01:56:00.595Z,4.04
2017-04-14T01:57:01.832Z,4.16
2017-04-14T01:58:03.113Z,4.19
2017-04-14T01:59:04.368Z,4.06
2017-04-14T02:00:05.695Z,4.08
2017-04-14T02:01:06.946Z,4.03
2017-04-14T02:02:08.171Z,4.07
2017-04-14T02:03:09.423Z,4.22
2017-04-14T02:04:10.654Z,4.19
2017-04-14T02:05:11.888Z,4.32
2017-04-14T02:06:13.161Z,4.32
2017-04-14T02:07:14.406Z,4.32
2017-04-14T02:08:15.714Z,4.32
2017-04-14T02:09:16.894Z,4.39
2017-04-14T02:10:18.130Z,4.46
2017-04-14T02:11:19.424Z,4.44
2017-04-14T02:12:20.827Z,4.4
2017-04-14T02:13:22.156Z,4.44
2017-04-14T02:14:23.376Z,4.42
2017-04-14T02:15:24.608Z,4.4
2017-04-14T02:16:25.850Z,4.4
2017-04-14T02:17:27.130Z,4.42
2017-04-14T02:18:28.363Z,4.5
2017-04-14T02:19:29.607Z,4.39
2017-04-14T02:20:30.902Z,4.29
2017-04-14T02:21:32.159Z,4.42
2017-04-14T02:22:33.411Z,4.32
2017-04-14T02:23:34.653Z,4.25
2017-04-14T02:24:35.952Z,4.25
2017-04-14T02:25:37.193Z,4.24
2017-04-14T02:26:38.426Z,4.19
2017-04-14T02:27:39.709Z,4.24
2017-04-14T02:28:40.937Z,4.15
2017-04-14T02:29:42.178Z,4.18
2017-04-14T02:30:43.408Z,4.15
2017-04-14T02:31:44.647Z,4.15
2017-04-14T02:32:45.906Z,4.21
2017-04-14T02:33:47.224Z,4.16
2017-04-14T02:34:48.462Z,4.06
2017-04-14T02:35:49.712Z,4.19
2017-04-14T02:36:50.988Z,4.08
2017-04-14T02:37:52.222Z,4.01
2017-04-14T02:38:53.472Z,4.08
2017-04-14T02:39:54.728Z,4.07
2017-04-14T02:40:56.019Z,4.07
2017-04-14T02:41:57.278Z,4.14
2017-04-14T02:42:58.521Z,4.1
2017-04-14T02:43:59.775Z,4.08
2017-04-14T02:45:01.115Z,3.97
2017-04-14T02:46:02.336Z,3.94
2017-04-14T02:47:03.588Z,3.97
2017-04-14T02:48:04.803Z,3.98
2017-04-14T02:49:06.033Z,4.03
2017-04-14T02:50:07.268Z,3.97
2017-04-14T02:51:08.534Z,3.94
2017-04-14T02:52:09.770Z,4
2017-04-14T02:53:11.089Z,3.97
2017-04-14T02:54:12.331Z,3.89
2017-04-14T02:55:13.585Z,4.01
2017-04-14T02:56:14.818Z,3.96
2017-04-14T02:57:16.056Z,4
2017-04-14T02:58:17.286Z,3.9
2017-04-14T02:59:18.671Z,3.85
2017-04-14T03:00:19.794Z,3.98
2017-04-14T03:01:21.021Z,3.97
2017-04-14T03:02:22.258Z,3.98
2017-04-14T03:03:23.485Z,3.98
2017-04-14T03:04:24.726Z,4
2017-04-14T03:05:25.985Z,3.96
2017-04-14T03:06:27.253Z,3.89
2017-04-14T03:07:28.461Z,3.9
2017-04-14T03:08:29.701Z,3.86
2017-04-14T03:09:31.173Z,3.96
2017-04-14T03:10:32.412Z,3.88
2017-04-14T03:11:33.651Z,3.79
2017-04-14T03:12:34.921Z,3.88
2017-04-14T03:13:36.129Z,3.8
2017-04-14T03:14:37.448Z,3.83
2017-04-14T03:15:38.689Z,3.97
2017-04-14T03:16:39.980Z,3.83
2017-04-14T03:17:41.256Z,3.83
2017-04-14T03:18:42.496Z,3.88
2017-04-14T03:19:43.725Z,3.78
2017-04-14T03:20:44.960Z,3.79
2017-04-14T03:21:46.197Z,3.71
2017-04-14T03:22:47.494Z,3.79
2017-04-14T03:23:48.779Z,3.83
2017-04-14T03:24:50.072Z,3.83
2017-04-14T03:25:51.311Z,3.83
2017-04-14T03:26:52.551Z,3.72
2017-04-14T03:27:53.842Z,3.82
2017-04-14T03:28:55.079Z,3.72
2017-04-14T03:29:56.311Z,3.76
2017-04-14T03:30:57.586Z,3.7
2017-04-14T03:31:58.817Z,3.71
2017-04-14T03:33:00.071Z,3.68
2017-04-14T03:34:01.458Z,3.68
2017-04-14T03:35:02.722Z,3.75
2017-04-14T03:36:03.981Z,3.67
2017-04-14T03:37:05.230Z,3.65
2017-04-14T03:38:06.481Z,3.64
2017-04-14T03:39:07.688Z,3.68
2017-04-14T03:40:08.925Z,3.6
2017-04-14T03:41:10.184Z,3.58
2017-04-14T03:42:11.440Z,3.53
2017-04-14T03:43:12.676Z,3.49
2017-04-14T03:44:13.959Z,3.42
2017-04-14T03:45:15.193Z,3.47
2017-04-14T03:46:16.452Z,3.4
2017-04-14T03:47:17.699Z,3.27
2017-04-14T03:48:18.986Z,3.28
2017-04-14T03:49:20.235Z,3.3
2017-04-14T03:50:21.471Z,3.33
2017-04-14T03:51:22.725Z,3.33
2017-04-14T03:52:23.936Z,3.28
2017-04-14T03:53:25.208Z,3.3
2017-04-14T03:54:26.441Z,3.27
2017-04-14T03:55:27.837Z,3.3
2017-04-14T03:56:29.114Z,3.27
2017-04-14T03:57:30.417Z,3.28
2017-04-14T03:58:31.652Z,3.28
2017-04-14T03:59:32.901Z,3.3
2017-04-14T04:00:34.134Z,3.28
2017-04-14T04:01:35.372Z,3.27
2017-04-14T04:02:36.604Z,3.27
2017-04-14T04:03:37.835Z,3.34
2017-04-14T04:04:39.071Z,3.28
2017-04-14T04:05:40.299Z,3.2
2017-04-14T04:06:41.534Z,3.21
2017-04-14T04:07:42.827Z,3.27
2017-04-14T04:08:44.135Z,3.27
2017-04-14T04:09:45.425Z,3.13
2017-04-14T04:10:46.658Z,3.27
2017-04-14T04:11:47.893Z,3.21
2017-04-14T04:12:49.136Z,3.21
2017-04-14T04:13:50.368Z,3.16
2017-04-14T04:14:51.713Z,3.21
2017-04-14T04:15:52.978Z,3.27
2017-04-14T04:16:54.208Z,3.18
2017-04-14T04:17:55.446Z,3.3
2017-04-14T04:18:56.693Z,3.18
2017-04-14T04:19:57.918Z,3.18
2017-04-14T04:20:59.172Z,3.2
2017-04-14T04:22:00.385Z,3.18
2017-04-14T04:23:01.615Z,3.16
2017-04-14T04:24:02.845Z,3.18
2017-04-14T04:25:04.174Z,3.1
2017-04-14T04:26:05.394Z,3.16
2017-04-14T04:27:06.697Z,3.09
2017-04-14T04:28:07.930Z,3.05
2017-04-14T04:29:09.231Z,3.09
2017-04-14T04:30:10.518Z,3.09
2017-04-14T04:31:11.743Z,3.16
2017-04-14T04:32:12.987Z,3.1
2017-04-14T04:33:14.218Z,3.12
2017-04-14T04:34:15.484Z,3.2
2017-04-14T04:35:16.850Z,3.2
2017-04-14T04:36:18.088Z,3.1
2017-04-14T04:37:19.309Z,3.13
2017-04-14T04:38:20.534Z,3.09
2017-04-14T04:39:21.768Z,3.2
2017-04-14T04:40:23.002Z,3.1
2017-04-14T04:41:24.254Z,3.2
2017-04-14T04:42:25.528Z,3.16
2017-04-14T04:43:26.767Z,3.23
2017-04-14T04:44:28.008Z,3.15
2017-04-14T04:45:29.294Z,3.21
2017-04-14T04:46:30.506Z,3.27
2017-04-14T04:47:31.755Z,3.31
2017-04-14T04:48:33.014Z,3.24
2017-04-14T04:49:34.234Z,3.28
2017-04-14T04:50:35.489Z,3.31
2017-04-14T04:51:36.719Z,3.3
2017-04-14T04:52:37.953Z,3.25
2017-04-14T04:53:39.194Z,3.39
2017-04-14T04:54:40.433Z,3.33
2017-04-14T04:55:41.669Z,3.34
2017-04-14T04:56:42.914Z,3.39
2017-04-14T04:57:44.147Z,3.4
2017-04-14T04:58:45.388Z,3.42
2017-04-14T04:59:46.625Z,3.53
2017-04-14T05:00:47.986Z,3.5
2017-04-14T05:01:49.240Z,3.49
2017-04-14T05:02:50.598Z,3.49
2017-04-14T05:03:51.731Z,3.54
2017-04-14T05:04:52.978Z,3.52
2017-04-14T05:05:54.191Z,3.65
2017-04-14T05:06:55.527Z,3.62
2017-04-14T05:07:56.777Z,3.72
2017-04-14T05:08:58.032Z,3.71
2017-04-14T05:09:59.256Z,3.72
2017-04-14T05:11:00.536Z,3.75
2017-04-14T05:12:01.778Z,3.79
2017-04-14T05:13:03.028Z,3.92
2017-04-14T05:14:04.268Z,3.8
2017-04-14T05:15:05.491Z,3.83
2017-04-14T05:16:06.837Z,3.79
2017-04-14T05:17:08.080Z,4
2017-04-14T05:18:09.320Z,3.96
2017-04-14T05:19:10.550Z,4
2017-04-14T05:20:11.807Z,4.04
2017-04-14T05:21:13.177Z,4.08
2017-04-14T05:22:14.390Z,4.14
2017-04-14T05:23:15.651Z,4.16
2017-04-14T05:24:16.875Z,4.46
2017-04-14T05:25:18.103Z,4.62
2017-04-14T05:26:19.340Z,4.95
2017-04-14T05:27:20.581Z,5.2
2017-04-14T05:28:21.835Z,5.6
2017-04-14T05:29:23.153Z,5.96
2017-04-14T05:30:24.380Z,6.33
2017-04-14T05:31:25.748Z,6.81
2017-04-14T05:32:27.061Z,7.05
2017-04-14T05:33:28.304Z,7.41
2017-04-14T05:34:29.534Z,7.93
2017-04-14T05:35:30.773Z,8.25
2017-04-14T05:36:32.030Z,8.73
2017-04-14T05:37:33.489Z,9.21
2017-04-14T05:38:34.748Z,9.58
2017-04-14T05:39:36.117Z,9.99
2017-04-14T05:40:37.363Z,10.39
2017-04-14T05:41:38.597Z,10.43
2017-04-14T05:42:39.825Z,10.7
2017-04-14T05:43:41.069Z,11.14
2017-04-14T05:44:42.319Z,11.38
2017-04-14T05:45:43.684Z,11.61
2017-04-14T05:46:44.963Z,11.74
2017-04-14T05:47:46.193Z,11.89
2017-04-14T05:48:47.482Z,12.13
2017-04-14T05:49:48.737Z,12.37
2017-04-14T05:50:50.000Z,12.71
2017-04-14T05:51:51.310Z,12.67
2017-04-14T05:52:52.706Z,12.59
2017-04-14T05:53:53.827Z,12.75
2017-04-14T05:54:55.064Z,12.99
2017-04-14T05:55:56.343Z,13.25
2017-04-14T05:56:57.669Z,13.52
2017-04-14T05:57:58.924Z,13.91
2017-04-14T05:59:00.175Z,14.27
2017-04-14T06:00:01.433Z,14.37
2017-04-14T06:01:02.673Z,14.52
2017-04-14T06:02:03.924Z,14.49
2017-04-14T06:03:05.305Z,14.56
2017-04-14T06:04:06.543Z,14.71
2017-04-14T06:05:07.797Z,14.6
2017-04-14T06:06:09.038Z,14.83
2017-04-14T06:07:10.294Z,14.91
2017-04-14T06:08:11.550Z,15.09
2017-04-14T06:09:12.926Z,15.31
2017-04-14T06:10:14.146Z,15.56
2017-04-14T06:11:15.397Z,15.78
2017-04-14T06:12:16.640Z,15.86
2017-04-14T06:13:17.884Z,15.84
2017-04-14T06:14:19.180Z,15.6
2017-04-14T06:15:20.433Z,15.97
2017-04-14T06:16:21.661Z,15.99
2017-04-14T06:17:22.952Z,16.33
2017-04-14T06:18:24.180Z,16.31
2017-04-14T06:19:25.490Z,16.22
2017-04-14T06:20:26.730Z,16.01
2017-04-14T06:21:27.995Z,15.85
2017-04-14T06:22:29.244Z,16.01
2017-04-14T06:23:30.510Z,16.22
2017-04-14T06:24:31.732Z,16.5
2017-04-14T06:25:32.971Z,16.58
2017-04-14T06:26:34.214Z,16.62
2017-04-14T06:27:35.574Z,17.04
2017-04-14T06:28:36.939Z,17.74
2017-04-14T06:29:38.180Z,17.97
2017-04-14T06:30:39.428Z,18.4
2017-04-14T06:31:40.733Z,18.44
2017-04-14T06:32:41.990Z,18.64
2017-04-14T06:33:43.235Z,18.84
2017-04-14T06:34:44.479Z,19.15
2017-04-14T06:35:45.734Z,19.21
2017-04-14T06:36:46.983Z,19.54
2017-04-14T06:37:48.225Z,19.66
2017-04-14T06:38:49.513Z,19.7
2017-04-14T06:39:50.727Z,19.8
2017-04-14T06:40:51.983Z,19.88
2017-04-14T06:41:53.344Z,19.9
2017-04-14T06:42:54.650Z,20.24
2017-04-14T06:43:55.910Z,20.56
2017-04-14T06:44:57.206Z,20.77
2017-04-14T06:45:58.429Z,21.13
2017-04-14T06:46:59.689Z,21.23
2017-04-14T06:48:01.019Z,21.74
2017-04-14T06:49:02.271Z,22.01
2017-04-14T06:50:03.539Z,21.98
2017-04-14T06:51:04.788Z,22.04
2017-04-14T06:52:06.139Z,21.81
2017-04-14T06:53:07.439Z,21.69
2017-04-14T06:54:08.696Z,21.19
2017-04-14T06:55:10.067Z,20.58
2017-04-14T06:56:11.306Z,20.53
2017-04-14T06:57:12.562Z,20.39
2017-04-14T06:58:13.900Z,20.41
2017-04-14T06:59:15.204Z,20.5
2017-04-14T07:00:16.448Z,20.72
2017-04-14T07:01:17.684Z,20.91
2017-04-14T07:02:18.934Z,21.16
2017-04-14T07:03:20.185Z,21.6
2017-04-14T07:04:21.532Z,22.01
2017-04-14T07:05:22.788Z,22.62
2017-04-14T07:06:24.053Z,22.78
2017-04-14T07:07:25.298Z,22.47
2017-04-14T07:08:26.685Z,21.99
2017-04-14T07:09:27.991Z,21.19
2017-04-14T07:10:29.257Z,20.41
2017-04-14T07:11:30.511Z,19.6
2017-04-14T07:12:31.832Z,18.72
2017-04-14T07:13:33.080Z,18
2017-04-14T07:14:34.325Z,17.55
2017-04-14T07:15:35.584Z,16.89
2017-04-14T07:16:36.841Z,16.38
2017-04-14T07:17:38.190Z,15.99
2017-04-14T07:18:39.427Z,15.43
2017-04-14T07:19:40.712Z,15.03
2017-04-14T07:20:41.963Z,14.29
2017-04-14T07:21:43.384Z,14.1
2017-04-14T07:22:44.622Z,13.63
2017-04-14T07:23:45.924Z,13.4
2017-04-14T07:24:47.161Z,13.04
2017-04-14T07:25:48.401Z,12.99
2017-04-14T07:26:49.682Z,12.67
2017-04-14T07:27:50.932Z,12.48
2017-04-14T07:28:52.183Z,12.3
2017-04-14T07:29:53.534Z,12.06
2017-04-14T07:30:54.778Z,12.01
2017-04-14T07:31:56.026Z,11.96
2017-04-14T07:32:57.303Z,11.89
2017-04-14T07:33:58.543Z,11.86
2017-04-14T07:34:59.774Z,11.83
2017-04-14T07:36:01.096Z,11.8
2017-04-14T07:37:02.346Z,11.86
2017-04-14T07:38:03.589Z,11.82
2017-04-14T07:39:04.824Z,11.71
2017-04-14T07:40:06.135Z,11.72
2017-04-14T07:41:07.398Z,11.68
2017-04-14T07:42:08.619Z,11.74
2017-04-14T07:43:09.856Z,11.68
2017-04-14T07:44:11.106Z,11.72
2017-04-14T07:45:12.700Z,11.62
2017-04-14T07:46:13.947Z,11.72
2017-04-14T07:47:15.294Z,11.75
2017-04-14T07:48:16.542Z,11.87
2017-04-14T07:49:17.853Z,11.93
2017-04-14T07:50:19.073Z,11.97
2017-04-14T07:51:20.318Z,12.06
2017-04-14T07:52:21.557Z,12.11
2017-04-14T07:53:22.800Z,12.15
2017-04-14T07:54:24.138Z,12.02
2017-04-14T07:55:25.357Z,12.02
2017-04-14T07:56:26.627Z,11.89
2017-04-14T07:57:27.894Z,11.86
2017-04-14T07:58:29.214Z,11.93
2017-04-14T07:59:30.430Z,11.86
2017-04-14T08:00:31.771Z,11.89
2017-04-14T08:01:33.016Z,11.82
2017-04-14T08:02:34.252Z,11.72
2017-04-14T08:03:35.553Z,11.77
2017-04-14T08:04:36.819Z,11.77
2017-04-14T08:05:38.048Z,11.67
2017-04-14T08:06:39.381Z,11.61
2017-04-14T08:07:40.622Z,11.56
2017-04-14T08:08:41.875Z,11.44
2017-04-14T08:09:43.119Z,11.52
2017-04-14T08:10:44.337Z,11.56
2017-04-14T08:11:45.696Z,11.53
2017-04-14T08:12:46.935Z,11.49
2017-04-14T08:13:48.209Z,11.39
2017-04-14T08:14:49.421Z,11.36
2017-04-14T08:15:50.663Z,11.39
2017-04-14T08:16:51.920Z,11.31
2017-04-14T08:17:53.162Z,11.16
2017-04-14T08:18:54.411Z,11.14
2017-04-14T08:19:55.676Z,11.01
2017-04-14T08:20:56.899Z,11.09
2017-04-14T08:21:58.140Z,11.06
2017-04-14T08:22:59.411Z,11.03
2017-04-14T08:24:00.646Z,11.13
2017-04-14T08:25:01.873Z,11.14
2017-04-14T08:26:03.135Z,11.28
2017-04-14T08:27:04.387Z,11.27
2017-04-14T08:28:05.695Z,11.28
2017-04-14T08:29:06.943Z,11.24
2017-04-14T08:30:08.220Z,11.19
2017-04-14T08:31:09.452Z,11.21
2017-04-14T08:32:10.697Z,11.29
2017-04-14T08:33:11.939Z,11.25
2017-04-14T08:34:13.179Z,11.21
2017-04-14T08:35:14.420Z,11.2
2017-04-14T08:36:15.687Z,11.1
2017-04-14T08:37:16.957Z,11.2
2017-04-14T08:38:18.282Z,11.2
2017-04-14T08:39:19.530Z,11.24
2017-04-14T08:40:20.820Z,11.21
2017-04-14T08:41:22.042Z,11.2
2017-04-14T08:42:23.371Z,11.06
2017-04-14T08:43:24.608Z,11.02
2017-04-14T08:44:25.857Z,10.95
2017-04-14T08:45:27.157Z,10.94
2017-04-14T08:46:28.377Z,10.88
2017-04-14T08:47:29.618Z,10.86
2017-04-14T08:48:30.865Z,10.73
2017-04-14T08:49:32.144Z,10.76
2017-04-14T08:50:33.462Z,10.77
2017-04-14T08:51:34.685Z,10.7
2017-04-14T08:52:35.930Z,10.77
2017-04-14T08:53:37.175Z,10.95
2017-04-14T08:54:38.391Z,10.8
2017-04-14T08:55:39.649Z,10.76
2017-04-14T08:56:40.938Z,10.81
2017-04-14T08:57:42.178Z,10.89
2017-04-14T08:58:43.425Z,10.98
2017-04-14T08:59:44.666Z,11.03
2017-04-14T09:00:45.966Z,11.09
2017-04-14T09:01:47.378Z,11.29
2017-04-14T09:02:48.626Z,11.38
2017-04-14T09:03:49.863Z,11.49
2017-04-14T09:04:51.104Z,11.46
2017-04-14T09:05:52.349Z,11.59
2017-04-14T09:06:53.646Z,11.53
2017-04-14T09:07:54.870Z,11.46
2017-04-14T09:08:56.114Z,11.43
2017-04-14T09:09:57.410Z,11.35
2017-04-14T09:10:58.634Z,11.19
2017-04-14T09:11:59.868Z,11.34
2017-04-14T09:13:01.108Z,11.29
2017-04-14T09:14:02.354Z,11.25
2017-04-14T09:15:03.586Z,11.24
2017-04-14T09:16:04.821Z,11.19
2017-04-14T09:17:06.085Z,11.17
2017-04-14T09:18:07.321Z,11.2
2017-04-14T09:19:08.585Z,11.14
2017-04-14T09:20:09.797Z,11.25
2017-04-14T09:21:11.208Z,11.34
2017-04-14T09:22:12.455Z,11.2
2017-04-14T09:23:13.690Z,11.17
2017-04-14T09:24:14.933Z,11.02
2017-04-14T09:25:16.216Z,11.14
2017-04-14T09:26:17.492Z,11.09
2017-04-14T09:27:18.717Z,11.29
2017-04-14T09:28:20.035Z,11.25
2017-04-14T09:29:21.418Z,11.28
2017-04-14T09:30:22.660Z,11.28
2017-04-14T09:31:23.903Z,11.36
2017-04-14T09:32:25.199Z,11.28
2017-04-14T09:33:26.466Z,11.35
2017-04-14T09:34:27.748Z,11.29
2017-04-14T09:35:28.985Z,11.28
2017-04-14T09:36:30.219Z,11.2
2017-04-14T09:37:31.481Z,11.25
2017-04-14T09:38:32.713Z,11.13
2017-04-14T09:39:33.977Z,11.02
2017-04-14T09:40:35.233Z,10.88
2017-04-14T09:41:36.509Z,10.94
2017-04-14T09:42:37.807Z,10.84
2017-04-14T09:43:39.029Z,10.8
2017-04-14T09:44:40.275Z,10.73
2017-04-14T09:45:41.521Z,10.73
2017-04-14T09:46:42.768Z,10.73
2017-04-14T09:47:44.007Z,10.62
2017-04-14T09:48:45.236Z,10.59
2017-04-14T09:49:46.490Z,10.58
2017-04-14T09:50:47.724Z,10.56
2017-04-14T09:51:48.965Z,10.71
2017-04-14T09:52:50.280Z,10.66
2017-04-14T09:53:51.528Z,10.74
2017-04-14T09:54:52.812Z,10.92
2017-04-14T09:55:54.030Z,10.96
2017-04-14T09:56:55.271Z,11.06
2017-04-14T09:57:56.520Z,11.03
2017-04-14T09:58:57.840Z,11.02
2017-04-14T09:59:59.077Z,11.16
2017-04-14T10:01:00.333Z,11.17
2017-04-14T10:02:01.683Z,11.13
2017-04-14T10:03:02.928Z,11.17
2017-04-14T10:04:04.173Z,11.09
2017-04-14T10:05:05.655Z,11.06
2017-04-14T10:06:06.895Z,11.2
2017-04-14T10:07:08.269Z,11.13
2017-04-14T10:08:09.489Z,11.1
2017-04-14T10:09:10.743Z,11.14
2017-04-14T10:10:12.007Z,11.06
2017-04-14T10:11:13.240Z,10.99
2017-04-14T10:12:14.494Z,10.98
2017-04-14T10:13:15.764Z,10.94
2017-04-14T10:14:17.012Z,11.01
2017-04-14T10:15:18.245Z,11.07
2017-04-14T10:16:19.529Z,11.01
2017-04-14T10:17:20.764Z,11.01
2017-04-14T10:18:22.008Z,11.01
2017-04-14T10:19:23.243Z,10.99
2017-04-14T10:20:24.530Z,11.02
2017-04-14T10:21:25.723Z,10.99
2017-04-14T10:22:26.958Z,10.95
2017-04-14T10:23:28.225Z,11.03
2017-04-14T10:24:29.576Z,11.1
2017-04-14T10:25:30.807Z,11.1
2017-04-14T10:26:32.041Z,11.24
2017-04-14T10:27:33.283Z,11.27
2017-04-14T10:28:34.516Z,11.25
2017-04-14T10:29:35.787Z,11.38
2017-04-14T10:30:37.035Z,11.39
2017-04-14T10:31:38.289Z,11.39
2017-04-14T10:32:39.588Z,11.32
2017-04-14T10:33:40.834Z,11.28
2017-04-14T10:34:42.057Z,11.44
2017-04-14T10:35:43.299Z,11.46
2017-04-14T10:36:44.540Z,11.41
2017-04-14T10:37:45.784Z,11.44
2017-04-14T10:38:47.074Z,11.47
2017-04-14T10:39:48.313Z,11.5
2017-04-14T10:40:49.574Z,11.57
2017-04-14T10:41:50.795Z,11.47
2017-04-14T10:42:52.029Z,11.47
2017-04-14T10:43:53.299Z,11.49
2017-04-14T10:44:54.652Z,11.49
2017-04-14T10:45:55.898Z,11.38
2017-04-14T10:46:57.147Z,11.44
2017-04-14T10:47:58.388Z,11.47
2017-04-14T10:48:59.632Z,11.39
2017-04-14T10:50:00.869Z,11.46
2017-04-14T10:51:02.158Z,11.56
2017-04-14T10:52:03.400Z,11.65
2017-04-14T10:53:04.857Z,11.72
2017-04-14T10:54:06.069Z,11.67
2017-04-14T10:55:07.384Z,11.52
2017-04-14T10:56:08.711Z,11.54
2017-04-14T10:57:09.959Z,11.54
2017-04-14T10:58:11.229Z,11.72
2017-04-14T10:59:12.455Z,11.75
2017-04-14T11:00:13.748Z,11.83
2017-04-14T11:01:14.987Z,11.99
2017-04-14T11:02:16.224Z,12.05
2017-04-14T11:03:17.714Z,12.19
2017-04-14T11:04:18.997Z,12.31
2017-04-14T11:05:20.247Z,12.45
2017-04-14T11:06:21.504Z,12.44
2017-04-14T11:07:22.725Z,12.44
2017-04-14T11:08:24.024Z,12.29
2017-04-14T11:09:25.282Z,12.34
2017-04-14T11:10:26.522Z,12.34
2017-04-14T11:11:27.777Z,12.41
2017-04-14T11:12:29.028Z,12.3
2017-04-14T11:13:30.397Z,12.13
2017-04-14T11:14:31.619Z,12.29
2017-04-14T11:15:32.877Z,12.39
2017-04-14T11:16:34.117Z,12.38
2017-04-14T11:17:35.355Z,12.42
2017-04-14T11:18:36.615Z,12.33
2017-04-14T11:19:37.877Z,12.29
2017-04-14T11:20:39.267Z,12.26
2017-04-14T11:21:40.450Z,12.24
2017-04-14T11:22:41.732Z,12.41
2017-04-14T11:23:42.969Z,12.64
2017-04-14T11:24:44.223Z,12.59
2017-04-14T11:25:45.537Z,12.74
2017-04-14T11:26:46.763Z,12.78
2017-04-14T11:27:48.019Z,12.95
2017-04-14T11:28:49.257Z,12.77
2017-04-14T11:29:50.502Z,12.88
2017-04-14T11:30:51.755Z,12.85
2017-04-14T11:31:53.010Z,12.85
2017-04-14T11:32:54.252Z,12.97
2017-04-14T11:33:55.511Z,13.04
2017-04-14T11:34:56.739Z,13.15
2017-04-14T11:35:57.993Z,13.3
2017-04-14T11:36:59.245Z,13.25
2017-04-14T11:38:00.474Z,13.21
2017-04-14T11:39:01.747Z,13.24
2017-04-14T11:40:02.977Z,13.3
2017-04-14T11:41:04.215Z,13.36
2017-04-14T11:42:05.514Z,13.3
2017-04-14T11:43:06.753Z,13.25
2017-04-14T11:44:08.010Z,13.29
2017-04-14T11:45:09.271Z,13.32
2017-04-14T11:46:10.551Z,13.4
2017-04-14T11:47:11.818Z,13.4
2017-04-14T11:48:13.077Z,13.37
2017-04-14T11:49:14.334Z,13.41
2017-04-14T11:50:15.569Z,13.33
2017-04-14T11:51:16.809Z,13.41
2017-04-14T11:52:18.056Z,13.33
2017-04-14T11:53:19.417Z,13.43
2017-04-14T11:54:20.666Z,13.46
2017-04-14T11:55:21.901Z,13.56
2017-04-14T11:56:23.139Z,13.69
2017-04-14T11:57:24.404Z,13.76
2017-04-14T11:58:25.714Z,13.95
2017-04-14T11:59:26.965Z,14.1
2017-04-14T12:00:28.200Z,14.14
2017-04-14T12:01:29.438Z,14.1
2017-04-14T12:02:30.701Z,13.98
2017-04-14T12:03:31.945Z,14.14
2017-04-14T12:04:33.297Z,14.01
2017-04-14T12:05:34.622Z,14.1
2017-04-14T12:06:35.955Z,14.16
2017-04-14T12:07:37.349Z,14.12
2017-04-14T12:08:38.578Z,14.19
2017-04-14T12:09:39.830Z,14.25
2017-04-14T12:10:41.171Z,14.38
2017-04-14T12:11:42.420Z,14.56
2017-04-14T12:12:43.673Z,14.84
2017-04-14T12:13:44.945Z,14.86
2017-04-14T12:14:46.189Z,14.75
2017-04-14T12:15:47.434Z,14.81
2017-04-14T12:16:48.722Z,14.93
2017-04-14T12:17:50.146Z,15.02
2017-04-14T12:18:51.370Z,15.13
2017-04-14T12:19:52.604Z,15.03
2017-04-14T12:20:53.843Z,15.08
2017-04-14T12:21:55.081Z,15.11
2017-04-14T12:22:56.417Z,15.11
2017-04-14T12:23:57.661Z,15.19
2017-04-14T12:24:59.058Z,15.11
2017-04-14T12:26:00.330Z,15.06
2017-04-14T12:27:01.596Z,15.11
2017-04-14T12:28:02.849Z,14.91
2017-04-14T12:29:04.160Z,15.08
2017-04-14T12:30:05.516Z,14.94
2017-04-14T12:31:06.776Z,14.9
2017-04-14T12:32:08.022Z,14.83
2017-04-14T12:33:09.291Z,14.71
2017-04-14T12:34:10.522Z,14.75
2017-04-14T12:35:11.781Z,14.75
2017-04-14T12:36:13.137Z,14.81
2017-04-14T12:37:14.269Z,14.93
2017-04-14T12:38:15.504Z,14.94
2017-04-14T12:39:16.758Z,14.81
2017-04-14T12:40:18.012Z,14.91
2017-04-14T12:41:19.255Z,14.83
2017-04-14T12:42:20.511Z,14.71
2017-04-14T12:43:21.741Z,14.54
2017-04-14T12:44:23.003Z,14.44
2017-04-14T12:45:24.263Z,14.31
2017-04-14T12:46:25.479Z,14.17
2017-04-14T12:47:26.741Z,14.29
2017-04-14T12:48:28.013Z,14.24
2017-04-14T12:49:29.440Z,14.1
2017-04-14T12:50:30.732Z,14.09
2017-04-14T12:51:31.973Z,13.95
2017-04-14T12:52:33.249Z,13.88
2017-04-14T12:53:34.542Z,13.94
2017-04-14T12:54:35.837Z,13.87
2017-04-14T12:55:37.172Z,13.88
2017-04-14T12:56:38.412Z,13.95
2017-04-14T12:57:39.660Z,13.84
2017-04-14T12:58:40.911Z,13.84
2017-04-14T12:59:42.161Z,13.76
2017-04-14T13:00:43.538Z,13.77
2017-04-14T13:01:44.760Z,13.76
2017-04-14T13:02:46.015Z,13.62
2017-04-14T13:03:47.255Z,13.62
2017-04-14T13:04:48.601Z,13.63
2017-04-14T13:05:49.854Z,13.61
2017-04-14T13:06:51.107Z,13.51
2017-04-14T13:07:52.384Z,13.49
2017-04-14T13:08:53.623Z,13.41
2017-04-14T13:09:54.969Z,13.46
2017-04-14T13:10:56.233Z,13.36
2017-04-14T13:11:57.619Z,13.24
2017-04-14T13:12:59.000Z,13.25
2017-04-14T13:14:00.222Z,13.24
2017-04-14T13:15:01.469Z,13.24
2017-04-14T13:16:02.720Z,13.18
2017-04-14T13:17:03.961Z,13.14
2017-04-14T13:18:05.229Z,13.12
2017-04-14T13:19:06.496Z,13.04
2017-04-14T13:20:07.761Z,13.03
2017-04-14T13:21:08.985Z,13.17
2017-04-14T13:22:10.224Z,13.17
2017-04-14T13:23:11.476Z,13.14